Home > Products > Valid Products > TAF

000
FTUS43 KLMK 181700
TAFLEX
TAF
KLEX 181725Z 1818/1918 06006KT P6SM SCT050=



000
FTUS43 KLMK 181700
TAFSDF
TAF
KSDF 181725Z 1818/1924 06010KT P6SM SCT050 BKN200
     FM190100 06004KT P6SM SCT200
     FM191400 09006KT P6SM SCT050=



000
FTUS43 KLMK 181700
TAFBWG
TAF
KBWG 181725Z 1818/1918 05005KT P6SM SCT050 BKN200
     FM190000 00000KT P6SM SCT200
      TEMPO 1910/1913 5SM BR
     FM191400 09005KT P6SM SCT050=



000
FTUS43 KLMK 181100
TAFLEX
TAF
KLEX 181120Z 1812/1912 08004KT P6SM BKN080
     FM181400 05006KT P6SM SCT050=



000
FTUS43 KLMK 181100
TAFSDF
TAF
KSDF 181120Z 1812/1918 VRB04KT P6SM BKN080
     FM181500 05005KT P6SM SCT050=



000
FTUS43 KLMK 181100
TAFBWG
TAF
KBWG 181120Z 1812/1912 00000KT P6SM BKN070
      TEMPO 1812/1813 4SM BR
     FM181400 05005KT P6SM SCT050=



000
FTUS43 KLMK 181000 AAA
TAFBWG
TAF AMD
KBWG 181031Z 1811/1906 00000KT P6SM BKN070
      TEMPO 1811/1813 4SM BR
     FM181400 05005KT P6SM SCT050=



000
FTUS43 KLMK 181000 AAA
TAFLEX
TAF AMD
KLEX 181030Z 1811/1906 08004KT P6SM BKN060
     FM181400 05006KT P6SM SCT050=



000
FTUS43 KLMK 180500
TAFSDF
TAF
KSDF 180520Z 1806/1912 02003KT P6SM SCT060 BKN150
     FM180900 VRB03KT P6SM BKN050
     FM181500 05005KT P6SM SCT050=



000
FTUS43 KLMK 180500
TAFLEX
TAF
KLEX 180520Z 1806/1906 VRB03KT P6SM SCT060
     FM181000 04003KT 5SM BR BKN060
     FM181300 05006KT P6SM SCT050=



000
FTUS43 KLMK 180500
TAFBWG
TAF
KBWG 180520Z 1806/1906 00000KT P6SM BKN060
     FM181000 00000KT 6SM BR BKN050
      TEMPO 1810/1813 2SM BR
     FM181400 05005KT P6SM SCT050=



000
FTUS43 KLMK 172300
TAFBWG
TAF
KBWG 172320Z 1800/1824 00000KT P6SM BKN070
     FM181000 00000KT 5SM BR BKN050
      TEMPO 1811/1813 2SM BR
     FM181400 06005KT P6SM SCT040=



000
FTUS43 KLMK 172300
TAFSDF
TAF
KSDF 172320Z 1800/1906 02003KT P6SM BKN080
     FM181500 05006KT P6SM SCT040=



000
FTUS43 KLMK 172300
TAFLEX
TAF
KLEX 172320Z 1800/1824 04003KT P6SM SCT090
     FM181000 04003KT 5SM BR BKN080
     FM181300 05006KT P6SM SCT040=



000
FTUS43 KLMK 171700
TAFLEX
TAF
KLEX 171721Z 1718/1818 VRB03KT P6SM BKN035
     FM172300 VRB03KT P6SM SKC
     FM181000 VRB03KT 5SM BR SCT003
     FM181300 05006KT P6SM SCT035=



000
FTUS43 KLMK 171700
TAFSDF
TAF
KSDF 171721Z 1718/1824 VRB03KT P6SM SCT035
     FM172300 VRB03KT P6SM SKC
     FM181400 05005KT P6SM SCT040=



000
FTUS43 KLMK 171700
TAFBWG
TAF
KBWG 171721Z 1718/1818 VRB03KT P6SM SCT020
     FM172200 VRB03KT P6SM SCT250
     FM180900 00000KT 4SM BR SCT008
      TEMPO 1810/1813 1SM BR BKN002
     FM181500 07005KT P6SM SCT035=



000
FTUS43 KLMK 171600 AAC
TAFBWG
TAF AMD
KBWG 171625Z 1716/1812 VRB03KT P6SM OVC015
     FM171730 VRB03KT P6SM SCT025
     FM171900 VRB04KT P6SM SCT040 SCT250=



000
FTUS43 KLMK 171500 AAB
TAFBWG
TAF AMD
KBWG 171525Z 1715/1812 VRB03KT P6SM OVC005
     FM171630 VRB04KT P6SM SCT025
     FM171900 VRB04KT P6SM SCT050 SCT250=



000
FTUS43 KLMK 171200 AAA
TAFBWG
TAF AMD
KBWG 171245Z 1713/1812 00000KT 1SM BR OVC002
      TEMPO 1713/1715 4SM BKN004
     FM171500 VRB04KT P6SM SCT025
     FM171800 VRB04KT P6SM SCT050 SCT250=



000
FTUS43 KLMK 171100
TAFLEX
TAF
KLEX 171122Z 1712/1812 08005KT P6SM BKN035
     FM171400 VRB04KT P6SM SCT040 SCT250=



000
FTUS43 KLMK 171100
TAFBWG
TAF
KBWG 171122Z 1712/1812 00000KT 4SM BR BKN005
     FM171400 VRB04KT P6SM SCT025
     FM171800 VRB04KT P6SM SCT050 SCT250=



000
FTUS43 KLMK 171100
TAFSDF
TAF
KSDF 171122Z 1712/1818 VRB03KT 6SM BR BKN027
     FM171500 VRB04KT P6SM SCT040 SCT250=



000
FTUS43 KLMK 170800 AAA
TAFLEX
TAF AMD
KLEX 170857Z 1709/1806 04005KT P6SM BKN030
      TEMPO 1709/1713 4SM BR BKN020
     FM171400 VRB03KT P6SM SCT040 SCT150=



000
FTUS43 KLMK 170800 AAA
TAFSDF
TAF AMD
KSDF 170856Z 1709/1812 VRB04KT 6SM BR SCT025
      TEMPO 1709/1712 5SM BR BKN023
     FM171400 VRB04KT P6SM SCT150=



000
FTUS43 KLMK 170500
TAFLEX
TAF
KLEX 170520Z 1706/1806 03004KT P6SM SKC
     FM170800 05003KT 5SM BR SKC
      TEMPO 1710/1713 2SM BR
     FM171400 VRB03KT P6SM SCT150=



000
FTUS43 KLMK 170500
TAFSDF
TAF
KSDF 170520Z 1706/1812 VRB03KT P6SM SKC
      TEMPO 1710/1712 4SM BR
     FM171400 VRB04KT P6SM SCT150=



000
FTUS43 KLMK 170500
TAFBWG
TAF
KBWG 170520Z 1706/1806 02004KT P6SM SKC
     FM170900 00000KT 4SM BR SCT005
      TEMPO 1709/1713 1SM BR
     FM171400 VRB04KT P6SM SKC=



000
FTUS43 KLMK 162300
TAFLEX
TAF
KLEX 162320Z 1700/1724 03003KT P6SM SKC
     FM170800 05003KT 4SM BR SKC
      TEMPO 1710/1712 2SM BR
     FM171300 VRB03KT P6SM SKC=



000
FTUS43 KLMK 162300
TAFSDF
TAF
KSDF 162320Z 1700/1806 VRB03KT P6SM SKC
      TEMPO 1710/1712 4SM BR
     FM171400 VRB04KT P6SM SCT120=



000
FTUS43 KLMK 162300
TAFBWG
TAF
KBWG 162320Z 1700/1724 00000KT P6SM SKC
     FM170600 00000KT 4SM BR SKC
     FM170900 00000KT 2SM BR SKC
      TEMPO 1709/1713 1SM BR
     FM171400 VRB03KT P6SM SKC=



000
FTUS43 KLMK 161800 AAA
TAFLEX
TAF AMD
KLEX 161843Z 1619/1718 01006KT P6SM SCT025 BKN035
     FM162000 02006KT P6SM SCT035
     FM170100 VRB03KT P6SM SKC
     FM170900 VRB02KT 4SM BR SKC
     FM171300 VRB04KT P6SM FEW050=



000
FTUS43 KLMK 161700 CCA
TAFLEX
TAF COR
KLEX 161750Z 1618/1718 01006KT P6SM SCT015 BKN025
     FM162000 02006KT P6SM SCT035
     FM170100 VRB03KT P6SM SKC
     FM170900 VRB02KT 4SM BR SKC
     FM171300 VRB04KT P6SM FEW050=



000
FTUS43 KLMK 161700
TAFBWG
TAF
KBWG 161739Z 1618/1718 33005KT P6SM BKN025
     FM161900 01005KT P6SM BKN035
     FM170100 00000KT P6SM SKC
     FM170800 00000KT 4SM BR SKC
     FM171000 00000KT 2SM BR SCT002
     FM171300 VRB04KT P6SM FEW040=



000
FTUS43 KLMK 161700
TAFSDF
TAF
KSDF 161739Z 1618/1724 01006KT P6SM BKN025
     FM161900 02007KT P6SM BKN035
     FM162100 01006KT P6SM SCT035
     FM170100 VRB03KT P6SM SKC
     FM171400 VRB04KT P6SM FEW040 SCT120=



000
FTUS43 KLMK 161700
TAFLEX
TAF
KLEX 161739Z 1618/1718 01006KT P6SM BKN015
     FM161900 01005KT P6SM BKN025
     FM162000 02006KT P6SM SCT035
     FM170100 VRB03KT P6SM SKC
     FM170900 VRB02KT 4SM BR SKC
     FM171300 VRB04KT P6SM FEW050=



000
FTUS43 KLMK 161600 AAB
TAFSDF
TAF AMD
KSDF 161601Z 1616/1718 36007KT P6SM BKN020 OVC035
     FM161800 01005KT P6SM SCT035
     FM170300 VRB03KT P6SM SKC=



000
FTUS43 KLMK 161600 AAA
TAFLEX
TAF AMD
KLEX 161600Z 1616/1712 02006KT P6SM BKN009
     FM161630 02007KT P6SM BKN015
     FM161800 01006KT P6SM BKN025
     FM162000 01005KT P6SM SCT035=



000
FTUS43 KLMK 161300 AAA
TAFSDF
TAF AMD
KSDF 161302Z 1613/1718 36011KT P6SM OVC013
     FM161400 36007KT P6SM OVC015
     FM162100 01005KT P6SM SCT035
     FM170300 VRB03KT P6SM SKC=



000
FTUS43 KLMK 161100
TAFSDF
TAF
KSDF 161139Z 1612/1718 36009KT 6SM BR SCT004 OVC008
     FM161400 36007KT P6SM OVC012
     FM162100 01005KT P6SM SCT035
     FM170300 VRB03KT P6SM SKC=



000
FTUS43 KLMK 161100
TAFBWG
TAF
KBWG 161139Z 1612/1712 34005KT P6SM VCSH OVC009
     FM161400 33005KT P6SM BKN015
     FM162100 34005KT P6SM SCT035
     FM170300 00000KT P6SM SKC=



000
FTUS43 KLMK 161100
TAFLEX
TAF
KLEX 161139Z 1612/1712 35005KT 5SM BR OVC006
      TEMPO 1612/1614 2SM BR OVC003
     FM161400 01006KT P6SM OVC010
     FM161600 02006KT P6SM BKN025
     FM162100 01005KT P6SM SCT035=



000
FTUS43 KLMK 161000 AAE
TAFBWG
TAF AMD
KBWG 161059Z 1611/1706 34005KT P6SM OVC010
     FM161500 33005KT P6SM BKN025
     FM162100 34005KT P6SM SCT035=



000
FTUS43 KLMK 161000 AAD
TAFLEX
TAF AMD
KLEX 161042Z 1611/1706 35005KT 6SM BR OVC008
     FM161300 01006KT P6SM OVC010
     FM161600 02006KT P6SM BKN025
     FM162100 01005KT P6SM SCT035=



000
FTUS43 KLMK 160900 AAG
TAFSDF
TAF AMD
KSDF 160950Z 1610/1712 35009KT 5SM BR SCT004 OVC007
     FM161400 36007KT P6SM OVC020
     FM162100 01005KT P6SM SCT035=



000
FTUS43 KLMK 160900 AAF
TAFSDF
TAF AMD
KSDF 160923Z 1609/1712 35007KT 5SM BR OVC007
     FM161400 36007KT P6SM OVC020
     FM162100 01005KT P6SM SCT035=



000
FTUS43 KLMK 160900 AAE
TAFSDF
TAF AMD
KSDF 160911Z 1609/1712 35007KT 6SM BR BKN008 OVC012
     FM161400 36007KT P6SM OVC020
     FM162100 01005KT P6SM SCT035=



000
FTUS43 KLMK 160900 AAD
TAFBWG
TAF AMD
KBWG 160911Z 1609/1706 22004KT P6SM VCSH OVC017
     FM161000 34005KT P6SM OVC012
     FM161500 33005KT P6SM BKN025
     FM162100 34005KT P6SM SCT035=



000
FTUS43 KLMK 160800 AAC
TAFBWG
TAF AMD
KBWG 160858Z 1609/1706 22004KT P6SM VCSH OVC025
     FM161000 34005KT P6SM OVC012
     FM161500 33005KT P6SM BKN025
     FM162100 34005KT P6SM SCT035=



000
FTUS43 KLMK 160800 AAC
TAFLEX
TAF AMD
KLEX 160858Z 1609/1706 35005KT 6SM BR OVC006
     FM161300 01006KT P6SM OVC010
     FM161600 02006KT P6SM BKN025
     FM162100 01005KT P6SM SCT035=



000
FTUS43 KLMK 160800 AAD
TAFSDF
TAF AMD
KSDF 160857Z 1609/1712 35007KT 6SM BR SCT008 OVC012
     FM161400 36007KT P6SM OVC020
     FM162100 01005KT P6SM SCT035=



000
FTUS43 KLMK 160800 AAB
TAFBWG
TAF AMD
KBWG 160844Z 1609/1706 22004KT P6SM VCSH OVC025
     FM161000 34005KT P6SM OVC012
     FM161500 33005KT P6SM BKN025
     FM162100 34005KT P6SM SCT035=



000
FTUS43 KLMK 160800 AAC
TAFSDF
TAF AMD
KSDF 160842Z 1609/1712 35006KT 6SM BR OVC012
     FM161400 36007KT P6SM OVC020
     FM162100 01005KT P6SM SCT035=



000
FTUS43 KLMK 160700 AAB
TAFSDF
TAF AMD
KSDF 160753Z 1608/1712 01004KT P6SM OVC020
     FM160830 35006KT 6SM BR OVC015
     FM161400 36007KT P6SM OVC020
     FM162100 01005KT P6SM SCT035=



000
FTUS43 KLMK 160700 AAA
TAFBWG
TAF AMD
KBWG 160752Z 1608/1706 22004KT P6SM OVC027
     FM161000 34005KT P6SM OVC018
     FM161500 33005KT P6SM BKN025
     FM162100 34005KT P6SM SCT035=



000
FTUS43 KLMK 160700 AAB
TAFLEX
TAF AMD
KLEX 160752Z 1608/1706 28005KT P6SM -SHRA OVC027
     FM160830 35005KT 6SM BR OVC012
     FM161600 02006KT P6SM BKN025
     FM162100 01005KT P6SM SCT035=



000
FTUS43 KLMK 160600 AAA
TAFLEX
TAF AMD
KLEX 160659Z 1607/1706 20005KT P6SM -SHRA FEW020 OVC035
     FM160830 35005KT 6SM BR OVC012
     FM161600 02006KT P6SM BKN025
     FM162100 01005KT P6SM SCT035=



000
FTUS43 KLMK 160600 AAA
TAFSDF
TAF AMD
KSDF 160658Z 1607/1712 01004KT P6SM OVC027
     FM160830 35006KT 6SM BR OVC015
     FM161400 36007KT P6SM OVC020
     FM162100 01005KT P6SM SCT035=



000
FTUS43 KLMK 160500
TAFLEX
TAF
KLEX 160520Z 1606/1706 20005KT P6SM -SHRA BKN040 BKN060
     FM160800 35005KT 6SM BR OVC012
     FM161600 02006KT P6SM BKN025
     FM162100 01005KT P6SM SCT035=



000
FTUS43 KLMK 160500
TAFBWG
TAF
KBWG 160520Z 1606/1706 22004KT P6SM BKN060
     FM161000 34005KT P6SM OVC018
     FM161500 33005KT P6SM BKN025
     FM162100 34005KT P6SM SCT035=



000
FTUS43 KLMK 160500
TAFSDF
TAF
KSDF 160520Z 1606/1712 22005KT P6SM VCSH SCT040 BKN060
     FM160700 34006KT 6SM BR OVC012
     FM161400 36007KT P6SM OVC020
     FM162100 01005KT P6SM SCT035=



000
FTUS43 KLMK 160000 AAA
TAFLEX
TAF AMD
KLEX 160019Z 1600/1624 VRB05KT P6SM -SHRA BKN060
      TEMPO 1600/1601 5SM -SHRA
     FM160900 VRB04KT P6SM VCSH OVC018
     FM161600 02006KT P6SM BKN025
     FM162200 01005KT P6SM SCT035=



000
FTUS43 KLMK 152300
TAFLEX
TAF
KLEX 152320Z 1600/1624 21005KT P6SM -SHRA BKN060
     FM160900 VRB04KT P6SM VCSH OVC018
     FM161600 02006KT P6SM BKN025
     FM162200 01005KT P6SM SCT035=



000
FTUS43 KLMK 152300
TAFSDF
TAF
KSDF 152320Z 1600/1706 22005KT P6SM VCSH BKN060
     FM160700 34006KT P6SM VCSH OVC017
     FM161500 36007KT P6SM OVC025
     FM162100 01005KT P6SM BKN035=



000
FTUS43 KLMK 152300
TAFBWG
TAF
KBWG 152320Z 1600/1624 22004KT P6SM BKN060
     FM160900 VRB03KT P6SM OVC018
     FM161500 33005KT P6SM BKN025
     FM162100 34005KT P6SM SCT035=



000
FTUS43 KLMK 152200 AAA
TAFLEX
TAF AMD
KLEX 152213Z 1522/1618 VRB05KT P6SM BKN060
     FM152300 VRB04KT P6SM -SHRA OVC060
     FM160100 26004KT P6SM VCSH BKN040
     FM161000 33004KT P6SM BKN025
     FM161100 33007KT P6SM BKN015
     FM161600 02006KT P6SM BKN025=



    US Dept of Commerce
    National Oceanic and Atmospheric Administration
    National Weather Service
    1325 East West Highway
    Silver Spring, MD 20910
    Page Author: NWS Internet Services Team
Disclaimer
Information Quality
Credits
Glossary
Privacy Policy
Freedom of Information Act (FOIA)
About Us
Career Opportunities